createdAt,value
2018-04-22T00:01:50.443Z,96.30
2018-04-22T00:05:53.015Z,96.20
2018-04-22T00:09:55.556Z,96.50
2018-04-22T00:13:58.882Z,96.60
2018-04-22T00:18:01.530Z,96.60
2018-04-22T00:22:10.589Z,96.60
2018-04-22T00:26:13.107Z,96.60
2018-04-22T00:30:15.735Z,96.80
2018-04-22T00:34:19.999Z,96.70
2018-04-22T00:38:25.187Z,96.90
2018-04-22T00:42:27.714Z,96.90
2018-04-22T00:46:30.355Z,97.00
2018-04-22T00:50:32.870Z,96.90
2018-04-22T00:54:36.195Z,97.10
2018-04-22T00:58:38.715Z,97.10
2018-04-22T01:02:43.968Z,97.20
2018-04-22T01:06:47.482Z,97.10
2018-04-22T01:10:50.032Z,97.40
2018-04-22T01:14:53.487Z,97.30
2018-04-22T01:18:56.038Z,97.40
2018-04-22T01:23:00.248Z,98.00
2018-04-22T01:27:13.608Z,97.70
2018-04-22T01:31:16.131Z,97.90
2018-04-22T01:35:18.679Z,97.90
2018-04-22T01:39:21.203Z,97.80
2018-04-22T01:43:24.105Z,97.90
2018-04-22T01:47:28.378Z,98.00
2018-04-22T01:51:31.213Z,97.90
2018-04-22T01:55:33.736Z,97.90
2018-04-22T01:59:43.355Z,98.00
2018-04-22T02:03:45.947Z,98.20
2018-04-22T02:07:48.519Z,98.40
2018-04-22T02:11:51.039Z,98.40
2018-04-22T02:15:54.435Z,98.60
2018-04-22T02:19:56.946Z,98.60
2018-04-22T02:24:00.516Z,98.70
2018-04-22T02:28:03.030Z,98.60
2018-04-22T02:32:05.604Z,98.40
2018-04-22T02:36:08.134Z,98.30
2018-04-22T02:40:11.071Z,98.40
2018-04-22T02:44:13.600Z,98.50
2018-04-22T02:48:39.987Z,98.70
2018-04-22T02:52:43.287Z,99.20
2018-04-22T02:56:45.838Z,99.20
2018-04-22T03:00:48.363Z,99.20
2018-04-22T03:04:50.915Z,99.20
2018-04-22T03:08:53.434Z,99.30
2018-04-22T03:12:56.879Z,99.20
2018-04-22T03:16:59.409Z,99.20
2018-04-22T03:21:02.878Z,98.90
2018-04-22T03:25:05.398Z,99.00
2018-04-22T03:29:08.709Z,99.00
2018-04-22T03:33:11.227Z,99.00
2018-04-22T03:37:14.542Z,99.40
2018-04-22T03:41:17.067Z,99.40
2018-04-22T03:45:20.467Z,99.40
2018-04-22T03:49:22.982Z,99.40
2018-04-22T03:53:25.547Z,99.60
2018-04-22T03:57:28.062Z,99.90
2018-04-22T04:01:30.706Z,99.90
2018-04-22T04:05:33.222Z,99.40
2018-04-22T04:09:36.148Z,99.40
2018-04-22T04:13:38.676Z,99.40
2018-04-22T04:17:41.222Z,99.50
2018-04-22T04:21:55.400Z,99.10
2018-04-22T04:26:10.743Z,99.70
2018-04-22T04:30:13.279Z,99.90
2018-04-22T04:34:15.834Z,99.90
2018-04-22T04:38:19.131Z,99.90
2018-04-22T04:42:21.688Z,99.90
2018-04-22T04:46:25.151Z,99.90
2018-04-22T04:50:27.702Z,99.90
2018-04-22T04:54:31.175Z,99.90
2018-04-22T04:58:33.732Z,99.90
2018-04-22T05:02:37.039Z,99.90
2018-04-22T05:06:39.596Z,99.90
2018-04-22T05:10:44.143Z,99.90
2018-04-22T05:14:46.687Z,99.90
2018-04-22T05:18:49.202Z,99.90
2018-04-22T05:22:51.746Z,99.90
2018-04-22T05:26:56.232Z,99.90
2018-04-22T05:30:58.778Z,99.90
2018-04-22T05:35:02.066Z,99.90
2018-04-22T05:39:06.635Z,99.90
2018-04-22T05:43:09.194Z,99.90
2018-04-22T05:47:11.838Z,99.90
2018-04-22T05:51:16.295Z,99.90
2018-04-22T05:55:19.046Z,99.90
2018-04-22T05:59:21.699Z,99.90
2018-04-22T06:03:24.254Z,99.90
2018-04-22T06:07:27.538Z,99.50
2018-04-22T06:11:34.970Z,99.50
2018-04-22T06:15:37.490Z,99.70
2018-04-22T06:19:46.014Z,99.90
2018-04-22T06:23:48.538Z,99.60
2018-04-22T06:27:51.078Z,98.60
2018-04-22T06:31:55.570Z,98.70
2018-04-22T06:35:58.118Z,98.90
2018-04-22T06:40:03.330Z,98.40
2018-04-22T06:44:05.923Z,98.40
2018-04-22T06:48:10.391Z,98.30
2018-04-22T06:52:14.263Z,97.70
2018-04-22T06:56:16.808Z,97.40
2018-04-22T07:00:19.667Z,97.90
2018-04-22T07:04:28.378Z,97.40
2018-04-22T07:08:31.855Z,97.70
2018-04-22T07:12:43.515Z,93.50
2018-04-22T07:16:46.064Z,93.40
2018-04-22T07:20:48.619Z,88.90
2018-04-22T07:24:56.094Z,85.90
2018-04-22T07:28:58.630Z,80.80
2018-04-22T07:33:01.966Z,75.10
2018-04-22T07:37:04.505Z,75.10
2018-04-22T07:41:07.122Z,73.50
2018-04-22T07:45:10.061Z,70.50
2018-04-22T07:49:13.510Z,69.20
2018-04-22T07:53:18.726Z,63.00
2018-04-22T07:57:21.274Z,62.80
2018-04-22T08:01:28.266Z,60.80
2018-04-22T08:05:30.830Z,60.80
2018-04-22T08:09:39.667Z,58.80
2018-04-22T08:13:47.468Z,61.30
2018-04-22T08:17:49.989Z,56.20
2018-04-22T08:21:59.734Z,57.20
2018-04-22T08:26:08.997Z,57.10
2018-04-22T08:30:12.537Z,56.30
2018-04-22T08:34:19.294Z,56.20
2018-04-22T08:38:21.851Z,57.70
2018-04-22T08:42:32.166Z,55.70
2018-04-22T08:46:35.775Z,54.20
2018-04-22T08:50:39.122Z,55.20
2018-04-22T08:54:58.062Z,54.70
2018-04-22T08:59:00.594Z,53.10
2018-04-22T09:03:04.123Z,56.50
2018-04-22T09:07:06.653Z,55.70
2018-04-22T09:11:09.471Z,56.40
2018-04-22T09:15:11.994Z,55.50
2018-04-22T09:19:14.545Z,56.80
2018-04-22T09:23:21.228Z,55.50
2018-04-22T09:27:31.826Z,53.60
2018-04-22T09:31:34.351Z,53.10
2018-04-22T09:35:37.876Z,53.90
2018-04-22T09:39:40.405Z,52.10
2018-04-22T09:43:43.719Z,53.20
2018-04-22T09:47:47.094Z,53.00
2018-04-22T09:51:49.646Z,52.80
2018-04-22T09:55:52.947Z,54.10
2018-04-22T09:59:59.246Z,53.90
2018-04-22T10:04:01.757Z,54.80
2018-04-22T10:08:09.888Z,54.10
2018-04-22T10:12:12.424Z,54.50
2018-04-22T10:16:29.850Z,60.60
2018-04-22T10:20:35.723Z,59.80
2018-04-22T10:24:38.270Z,58.10
2018-04-22T10:28:41.570Z,56.40
2018-04-22T10:32:44.116Z,56.40
2018-04-22T10:36:52.172Z,57.50
2018-04-22T10:40:55.803Z,58.80
2018-04-22T10:44:58.312Z,59.90
2018-04-22T10:49:18.888Z,61.30
2018-04-22T10:53:22.215Z,62.20
2018-04-22T10:57:25.518Z,62.50
2018-04-22T11:01:37.799Z,62.60
2018-04-22T11:05:40.354Z,63.10
2018-04-22T11:09:42.901Z,60.00
2018-04-22T11:13:45.473Z,60.60
2018-04-22T11:17:47.990Z,61.50
2018-04-22T11:21:51.310Z,61.60
2018-04-22T11:25:53.818Z,61.70
2018-04-22T11:30:08.966Z,58.30
2018-04-22T11:34:11.494Z,58.10
2018-04-22T11:38:25.196Z,56.00
2018-04-22T11:42:33.721Z,53.00
2018-04-22T11:46:36.344Z,53.10
2018-04-22T11:50:43.723Z,51.40
2018-04-22T11:54:47.371Z,52.10
2018-04-22T11:58:49.891Z,50.10
2018-04-22T12:02:52.871Z,55.20
2018-04-22T12:06:55.387Z,57.30
2018-04-22T12:10:58.085Z,52.90
2018-04-22T12:15:00.606Z,52.00
2018-04-22T12:19:03.146Z,52.50
2018-04-22T12:23:07.368Z,51.50
2018-04-22T12:27:10.056Z,51.30
2018-04-22T12:31:12.592Z,51.30
2018-04-22T12:35:15.569Z,51.20
2018-04-22T12:39:18.101Z,52.30
2018-04-22T12:43:20.641Z,51.10
2018-04-22T12:47:39.078Z,51.00
2018-04-22T12:51:41.980Z,51.00
2018-04-22T12:55:44.528Z,55.30
2018-04-22T12:59:47.098Z,51.60
2018-04-22T13:03:50.633Z,51.70
2018-04-22T13:07:53.171Z,52.30
2018-04-22T13:11:56.510Z,57.40
2018-04-22T13:16:04.004Z,83.30
2018-04-22T13:20:14.773Z,87.00
2018-04-22T13:24:17.379Z,88.40
2018-04-22T13:28:24.416Z,88.50
2018-04-22T13:32:27.001Z,88.90
2018-04-22T13:36:41.563Z,91.20
2018-04-22T13:40:45.067Z,94.10
2018-04-22T13:44:47.685Z,92.70
2018-04-22T13:48:53.759Z,92.30
2018-04-22T13:52:57.309Z,92.10
2018-04-22T13:57:01.884Z,92.10
2018-04-22T14:01:04.463Z,92.70
2018-04-22T14:05:07.051Z,92.10
2018-04-22T14:09:10.395Z,91.60
2018-04-22T14:13:13.041Z,91.60
2018-04-22T14:17:17.521Z,90.50
2018-04-22T14:21:24.572Z,91.60
2018-04-22T14:25:32.995Z,86.90
2018-04-22T14:29:36.514Z,82.90
2018-04-22T14:33:39.798Z,78.20
2018-04-22T14:37:43.398Z,78.10
2018-04-22T14:41:45.918Z,76.40
2018-04-22T14:46:04.200Z,72.40
2018-04-22T14:50:06.743Z,59.60
2018-04-22T14:54:09.294Z,71.10
2018-04-22T14:58:26.003Z,81.60
2018-04-22T15:02:35.934Z,55.70
2018-04-22T15:06:49.731Z,55.60
2018-04-22T15:10:52.692Z,55.80
2018-04-22T15:14:55.229Z,54.50
2018-04-22T15:19:14.433Z,51.30
2018-04-22T15:23:36.003Z,52.00
2018-04-22T15:27:46.136Z,53.40
2018-04-22T15:31:59.142Z,50.10
2018-04-22T15:40:31.521Z,51.30
2018-04-22T15:44:34.850Z,43.60
2018-04-22T15:48:39.126Z,49.00
2018-04-22T15:52:56.655Z,48.90
2018-04-22T15:57:01.139Z,49.00
2018-04-22T16:01:05.906Z,52.40
2018-04-22T16:05:22.062Z,52.50
2018-04-22T16:09:39.663Z,53.00
2018-04-22T16:13:52.839Z,52.80
2018-04-22T16:17:55.387Z,49.60
2018-04-22T16:21:57.921Z,49.20
2018-04-22T16:26:02.507Z,51.70
2018-04-22T16:30:12.243Z,50.50
2018-04-22T16:34:23.054Z,54.00
2018-04-22T16:38:25.564Z,53.90
2018-04-22T16:42:28.124Z,56.80
2018-04-22T16:46:31.615Z,59.00
2018-04-22T16:50:51.286Z,60.00
2018-04-22T16:54:54.572Z,61.80
2018-04-22T16:58:57.121Z,61.70
2018-04-22T17:03:00.404Z,62.50
2018-04-22T17:07:03.933Z,62.80
2018-04-22T17:11:07.466Z,61.50
2018-04-22T17:19:38.246Z,61.70
2018-04-22T17:23:41.815Z,59.90
2018-04-22T17:27:46.356Z,62.40
2018-04-22T17:31:49.028Z,63.50
2018-04-22T17:35:52.352Z,63.60
2018-04-22T17:39:54.895Z,63.70
2018-04-22T17:43:57.407Z,62.90
2018-04-22T17:48:05.539Z,64.00
2018-04-22T17:52:08.055Z,65.50
2018-04-22T17:56:13.632Z,68.00
2018-04-22T18:00:16.149Z,69.10
2018-04-22T18:04:18.701Z,69.10
2018-04-22T18:08:21.214Z,69.10
2018-04-22T18:12:38.722Z,69.70
2018-04-22T18:17:02.807Z,67.80
2018-04-22T18:21:05.350Z,67.80
2018-04-22T18:25:07.871Z,67.50
2018-04-22T18:29:20.505Z,66.40
2018-04-22T18:33:23.023Z,68.10
2018-04-22T18:37:25.575Z,64.60
2018-04-22T18:41:28.087Z,64.80
2018-04-22T18:45:31.393Z,65.90
2018-04-22T18:49:33.906Z,65.80
2018-04-22T18:53:36.823Z,64.30
2018-04-22T18:57:40.103Z,67.00
2018-04-22T19:01:43.075Z,66.20
2018-04-22T19:05:46.355Z,66.10
2018-04-22T19:09:48.891Z,66.10
2018-04-22T19:13:51.411Z,68.30
2018-04-22T19:17:57.979Z,67.70
2018-04-22T19:22:00.498Z,67.90
2018-04-22T19:26:03.430Z,70.70
2018-04-22T19:30:06.810Z,69.40
2018-04-22T19:34:09.347Z,71.30
2018-04-22T19:38:25.576Z,71.20
2018-04-22T19:42:29.902Z,72.70
2018-04-22T19:46:32.414Z,72.60
2018-04-22T19:50:34.966Z,75.00
2018-04-22T19:54:37.487Z,77.00
2018-04-22T19:58:57.462Z,76.30
2018-04-22T20:03:00.820Z,78.30
2018-04-22T20:07:04.662Z,78.10
2018-04-22T20:11:07.174Z,75.90
2018-04-22T20:15:09.735Z,76.30
2018-04-22T20:19:19.215Z,78.40
2018-04-22T20:23:22.528Z,77.90
2018-04-22T20:27:25.990Z,77.90
2018-04-22T20:31:28.544Z,78.20
2018-04-22T20:35:31.068Z,78.70
2018-04-22T20:39:36.302Z,80.00
2018-04-22T20:43:38.907Z,80.00
2018-04-22T20:47:41.856Z,80.20
2018-04-22T20:51:45.130Z,81.80
2018-04-22T20:55:47.669Z,81.70
2018-04-22T20:59:50.195Z,82.10
2018-04-22T21:03:53.514Z,83.40
2018-04-22T21:07:56.803Z,84.10
2018-04-22T21:11:59.339Z,84.00
2018-04-22T21:16:02.624Z,85.10
2018-04-22T21:24:35.474Z,86.40
2018-04-22T21:28:38.024Z,86.40
2018-04-22T21:32:41.315Z,87.50
2018-04-22T21:36:43.859Z,87.50
2018-04-22T21:40:46.472Z,87.50
2018-04-22T21:44:51.743Z,89.60
2018-04-22T21:48:55.023Z,90.30
2018-04-22T21:53:01.018Z,90.30
2018-04-22T21:57:04.098Z,90.40
2018-04-22T22:01:06.701Z,90.90
2018-04-22T22:05:09.286Z,91.10
2018-04-22T22:09:12.603Z,91.80
2018-04-22T22:13:20.028Z,92.10
2018-04-22T22:17:22.638Z,92.10
2018-04-22T22:21:27.904Z,92.80
2018-04-22T22:25:31.690Z,92.80
2018-04-22T22:29:34.285Z,92.80
2018-04-22T22:33:37.831Z,93.10
2018-04-22T22:37:45.131Z,93.00
2018-04-22T22:41:47.764Z,93.30
2018-04-22T22:45:50.274Z,93.40
2018-04-22T22:49:52.913Z,93.50
2018-04-22T22:53:56.211Z,93.80
2018-04-22T22:57:59.046Z,93.80
2018-04-22T23:02:01.570Z,93.90
2018-04-22T23:06:04.126Z,94.10
2018-04-22T23:10:06.639Z,94.10
2018-04-22T23:14:09.182Z,94.20
2018-04-22T23:18:11.700Z,94.40
2018-04-22T23:22:20.186Z,94.60
2018-04-22T23:26:22.695Z,94.60
2018-04-22T23:30:25.242Z,94.60
2018-04-22T23:34:27.766Z,95.00
2018-04-22T23:38:32.255Z,95.50
2018-04-22T23:42:34.765Z,95.70
2018-04-22T23:46:37.306Z,95.90
2018-04-22T23:50:39.857Z,95.80
2018-04-22T23:54:42.390Z,96.20
2018-04-22T23:58:44.911Z,96.20
